sensor_id;sensor_type;location;lat;lon;timestamp;temperature;humidity
11744;DHT22;5929;51.906;7.674;2023-12-22T00:00:21;6.30;99.90
11744;DHT22;5929;51.906;7.674;2023-12-22T00:02:48;6.30;99.90
11744;DHT22;5929;51.906;7.674;2023-12-22T00:05:15;6.20;99.90
11744;DHT22;5929;51.906;7.674;2023-12-22T00:07:41;6.20;99.90
11744;DHT22;5929;51.906;7.674;2023-12-22T00:10:09;6.20;99.90
11744;DHT22;5929;51.906;7.674;2023-12-22T00:12:37;6.10;99.90
11744;DHT22;5929;51.906;7.674;2023-12-22T00:15:07;6.10;99.90
11744;DHT22;5929;51.906;7.674;2023-12-22T00:17:34;6.10;99.90
11744;DHT22;5929;51.906;7.674;2023-12-22T00:20:00;6.10;99.90
11744;DHT22;5929;51.906;7.674;2023-12-22T00:22:28;6.10;99.90
11744;DHT22;5929;51.906;7.674;2023-12-22T00:24:55;6.10;99.90
11744;DHT22;5929;51.906;7.674;2023-12-22T00:27:22;6.10;99.90
11744;DHT22;5929;51.906;7.674;2023-12-22T00:29:50;6.10;99.90
11744;DHT22;5929;51.906;7.674;2023-12-22T00:32:17;6.10;99.90
11744;DHT22;5929;51.906;7.674;2023-12-22T00:34:44;6.10;99.90
11744;DHT22;5929;51.906;7.674;2023-12-22T00:37:11;6.10;99.90
11744;DHT22;5929;51.906;7.674;2023-12-22T00:39:38;6.10;99.90
11744;DHT22;5929;51.906;7.674;2023-12-22T00:42:05;6.10;99.90
11744;DHT22;5929;51.906;7.674;2023-12-22T00:44:31;6.10;99.90
11744;DHT22;5929;51.906;7.674;2023-12-22T00:47:00;6.10;99.90
11744;DHT22;5929;51.906;7.674;2023-12-22T00:49:26;6.10;99.90
11744;DHT22;5929;51.906;7.674;2023-12-22T00:51:53;6.20;99.90
11744;DHT22;5929;51.906;7.674;2023-12-22T00:54:20;6.20;99.90
11744;DHT22;5929;51.906;7.674;2023-12-22T00:56:47;6.10;99.90
11744;DHT22;5929;51.906;7.674;2023-12-22T00:59:14;6.10;99.90
11744;DHT22;5929;51.906;7.674;2023-12-22T01:01:40;6.10;99.90
11744;DHT22;5929;51.906;7.674;2023-12-22T01:04:08;6.10;99.90
11744;DHT22;5929;51.906;7.674;2023-12-22T01:06:37;6.00;99.90
11744;DHT22;5929;51.906;7.674;2023-12-22T01:09:04;6.00;99.90
11744;DHT22;5929;51.906;7.674;2023-12-22T01:11:31;6.00;99.90
11744;DHT22;5929;51.906;7.674;2023-12-22T01:13:58;6.00;99.90
11744;DHT22;5929;51.906;7.674;2023-12-22T01:16:25;6.10;99.90
11744;DHT22;5929;51.906;7.674;2023-12-22T01:18:54;6.00;99.90
11744;DHT22;5929;51.906;7.674;2023-12-22T01:21:22;6.00;99.90
11744;DHT22;5929;51.906;7.674;2023-12-22T01:23:49;6.00;99.90
11744;DHT22;5929;51.906;7.674;2023-12-22T01:26:15;6.00;99.90
11744;DHT22;5929;51.906;7.674;2023-12-22T01:28:42;6.00;99.90
11744;DHT22;5929;51.906;7.674;2023-12-22T01:31:09;6.10;99.90
11744;DHT22;5929;51.906;7.674;2023-12-22T01:33:36;6.00;99.90
11744;DHT22;5929;51.906;7.674;2023-12-22T01:36:03;6.00;99.90
11744;DHT22;5929;51.906;7.674;2023-12-22T01:38:31;6.00;99.90
11744;DHT22;5929;51.906;7.674;2023-12-22T01:41:00;6.00;99.90
11744;DHT22;5929;51.906;7.674;2023-12-22T01:43:30;6.00;99.90
11744;DHT22;5929;51.906;7.674;2023-12-22T01:45:58;6.10;99.90
11744;DHT22;5929;51.906;7.674;2023-12-22T01:48:26;6.20;99.90
11744;DHT22;5929;51.906;7.674;2023-12-22T01:50:55;6.20;99.90
11744;DHT22;5929;51.906;7.674;2023-12-22T01:53:24;6.10;99.90
11744;DHT22;5929;51.906;7.674;2023-12-22T01:55:54;6.20;99.90
11744;DHT22;5929;51.906;7.674;2023-12-22T01:58:22;6.20;99.90
11744;DHT22;5929;51.906;7.674;2023-12-22T02:00:49;6.20;99.90
11744;DHT22;5929;51.906;7.674;2023-12-22T02:03:16;6.20;99.90
11744;DHT22;5929;51.906;7.674;2023-12-22T02:05:44;6.20;99.90
11744;DHT22;5929;51.906;7.674;2023-12-22T02:08:11;6.20;99.90
11744;DHT22;5929;51.906;7.674;2023-12-22T02:10:38;6.30;99.90
11744;DHT22;5929;51.906;7.674;2023-12-22T02:13:08;6.30;99.90
11744;DHT22;5929;51.906;7.674;2023-12-22T02:15:35;6.30;99.90
11744;DHT22;5929;51.906;7.674;2023-12-22T02:18:04;6.30;99.90
11744;DHT22;5929;51.906;7.674;2023-12-22T02:20:33;6.40;99.90
11744;DHT22;5929;51.906;7.674;2023-12-22T02:23:01;6.40;99.90
11744;DHT22;5929;51.906;7.674;2023-12-22T02:25:28;6.40;99.90
11744;DHT22;5929;51.906;7.674;2023-12-22T02:27:58;6.40;99.90
11744;DHT22;5929;51.906;7.674;2023-12-22T02:30:32;6.40;99.90
11744;DHT22;5929;51.906;7.674;2023-12-22T02:33:02;6.50;99.90
11744;DHT22;5929;51.906;7.674;2023-12-22T02:35:32;6.50;99.90
11744;DHT22;5929;51.906;7.674;2023-12-22T02:38:01;6.50;99.90
11744;DHT22;5929;51.906;7.674;2023-12-22T02:40:29;6.50;99.90
11744;DHT22;5929;51.906;7.674;2023-12-22T02:42:56;6.50;99.90
11744;DHT22;5929;51.906;7.674;2023-12-22T02:45:23;6.50;99.90
11744;DHT22;5929;51.906;7.674;2023-12-22T02:47:50;6.50;99.90
11744;DHT22;5929;51.906;7.674;2023-12-22T02:50:17;6.50;99.90
11744;DHT22;5929;51.906;7.674;2023-12-22T02:52:43;6.50;99.90
11744;DHT22;5929;51.906;7.674;2023-12-22T02:55:12;6.50;99.90
11744;DHT22;5929;51.906;7.674;2023-12-22T02:57:39;6.50;99.90
11744;DHT22;5929;51.906;7.674;2023-12-22T03:00:07;6.50;99.90
11744;DHT22;5929;51.906;7.674;2023-12-22T03:02:33;6.50;99.90
11744;DHT22;5929;51.906;7.674;2023-12-22T03:04:59;6.50;99.90
11744;DHT22;5929;51.906;7.674;2023-12-22T03:07:26;6.50;99.90
11744;DHT22;5929;51.906;7.674;2023-12-22T03:09:53;6.50;99.90
11744;DHT22;5929;51.906;7.674;2023-12-22T03:12:21;6.50;99.90
11744;DHT22;5929;51.906;7.674;2023-12-22T03:14:48;6.30;99.90
11744;DHT22;5929;51.906;7.674;2023-12-22T03:17:15;5.90;99.90
11744;DHT22;5929;51.906;7.674;2023-12-22T03:19:42;5.70;99.90
11744;DHT22;5929;51.906;7.674;2023-12-22T03:22:09;5.50;99.90
11744;DHT22;5929;51.906;7.674;2023-12-22T03:24:35;5.40;99.90
11744;DHT22;5929;51.906;7.674;2023-12-22T03:27:04;5.30;99.90
11744;DHT22;5929;51.906;7.674;2023-12-22T03:29:32;5.20;99.90
11744;DHT22;5929;51.906;7.674;2023-12-22T03:31:59;5.10;99.90
11744;DHT22;5929;51.906;7.674;2023-12-22T03:34:26;5.20;99.90
11744;DHT22;5929;51.906;7.674;2023-12-22T03:36:52;5.30;99.90
11744;DHT22;5929;51.906;7.674;2023-12-22T03:39:19;5.40;99.90
11744;DHT22;5929;51.906;7.674;2023-12-22T03:41:46;5.50;99.90
11744;DHT22;5929;51.906;7.674;2023-12-22T03:44:13;5.60;99.90
11744;DHT22;5929;51.906;7.674;2023-12-22T03:46:41;5.70;99.90
11744;DHT22;5929;51.906;7.674;2023-12-22T03:49:08;5.50;99.90
11744;DHT22;5929;51.906;7.674;2023-12-22T03:51:34;5.30;99.90
11744;DHT22;5929;51.906;7.674;2023-12-22T03:54:03;5.20;99.90
11744;DHT22;5929;51.906;7.674;2023-12-22T03:56:30;5.10;99.90
11744;DHT22;5929;51.906;7.674;2023-12-22T03:58:56;5.00;99.90
11744;DHT22;5929;51.906;7.674;2023-12-22T04:01:23;5.00;99.90
11744;DHT22;5929;51.906;7.674;2023-12-22T04:03:54;5.00;99.90
11744;DHT22;5929;51.906;7.674;2023-12-22T04:06:21;5.00;99.90
11744;DHT22;5929;51.906;7.674;2023-12-22T04:08:50;5.00;99.90
11744;DHT22;5929;51.906;7.674;2023-12-22T04:11:19;5.00;99.90
11744;DHT22;5929;51.906;7.674;2023-12-22T04:13:48;5.00;99.90
11744;DHT22;5929;51.906;7.674;2023-12-22T04:16:17;5.10;99.90
11744;DHT22;5929;51.906;7.674;2023-12-22T04:18:44;5.10;99.90
11744;DHT22;5929;51.906;7.674;2023-12-22T04:21:12;5.20;99.90
11744;DHT22;5929;51.906;7.674;2023-12-22T04:23:39;5.30;99.90
11744;DHT22;5929;51.906;7.674;2023-12-22T04:26:06;5.30;99.90
11744;DHT22;5929;51.906;7.674;2023-12-22T04:28:33;5.30;99.90
11744;DHT22;5929;51.906;7.674;2023-12-22T04:31:00;5.30;99.90
11744;DHT22;5929;51.906;7.674;2023-12-22T04:33:27;5.30;99.90
11744;DHT22;5929;51.906;7.674;2023-12-22T04:35:54;5.30;99.90
11744;DHT22;5929;51.906;7.674;2023-12-22T04:38:22;5.40;99.90
11744;DHT22;5929;51.906;7.674;2023-12-22T04:40:49;5.50;99.90
11744;DHT22;5929;51.906;7.674;2023-12-22T04:43:15;5.60;99.90
11744;DHT22;5929;51.906;7.674;2023-12-22T04:45:51;5.70;99.90
11744;DHT22;5929;51.906;7.674;2023-12-22T04:48:18;5.70;99.90
11744;DHT22;5929;51.906;7.674;2023-12-22T04:50:45;5.70;99.90
11744;DHT22;5929;51.906;7.674;2023-12-22T04:53:11;5.60;99.90
11744;DHT22;5929;51.906;7.674;2023-12-22T04:55:39;5.70;99.90
11744;DHT22;5929;51.906;7.674;2023-12-22T04:58:06;5.60;99.90
11744;DHT22;5929;51.906;7.674;2023-12-22T05:00:33;5.60;99.90
11744;DHT22;5929;51.906;7.674;2023-12-22T05:03:00;5.60;99.90
11744;DHT22;5929;51.906;7.674;2023-12-22T05:05:27;5.60;99.90
11744;DHT22;5929;51.906;7.674;2023-12-22T05:07:54;5.60;99.90
11744;DHT22;5929;51.906;7.674;2023-12-22T05:10:21;5.60;99.90
11744;DHT22;5929;51.906;7.674;2023-12-22T05:12:52;5.60;99.90
11744;DHT22;5929;51.906;7.674;2023-12-22T05:15:19;5.60;99.90
11744;DHT22;5929;51.906;7.674;2023-12-22T05:17:46;5.60;99.90
11744;DHT22;5929;51.906;7.674;2023-12-22T05:20:15;5.70;99.90
11744;DHT22;5929;51.906;7.674;2023-12-22T05:22:42;5.60;99.90
11744;DHT22;5929;51.906;7.674;2023-12-22T05:25:09;5.60;99.90
11744;DHT22;5929;51.906;7.674;2023-12-22T05:27:36;5.70;99.90
11744;DHT22;5929;51.906;7.674;2023-12-22T05:30:08;5.70;99.90
11744;DHT22;5929;51.906;7.674;2023-12-22T05:32:35;5.70;99.90
11744;DHT22;5929;51.906;7.674;2023-12-22T05:35:02;5.70;99.90
11744;DHT22;5929;51.906;7.674;2023-12-22T05:37:28;5.70;99.90
11744;DHT22;5929;51.906;7.674;2023-12-22T05:39:55;5.80;99.90
11744;DHT22;5929;51.906;7.674;2023-12-22T05:42:22;5.80;99.90
11744;DHT22;5929;51.906;7.674;2023-12-22T05:44:49;5.90;99.90
11744;DHT22;5929;51.906;7.674;2023-12-22T05:47:18;5.90;99.90
11744;DHT22;5929;51.906;7.674;2023-12-22T05:49:45;5.90;99.90
11744;DHT22;5929;51.906;7.674;2023-12-22T05:52:12;5.90;99.90
11744;DHT22;5929;51.906;7.674;2023-12-22T05:54:39;6.00;99.90
11744;DHT22;5929;51.906;7.674;2023-12-22T05:57:05;6.00;99.90
11744;DHT22;5929;51.906;7.674;2023-12-22T05:59:33;6.00;99.90
11744;DHT22;5929;51.906;7.674;2023-12-22T06:02:03;6.00;99.90
11744;DHT22;5929;51.906;7.674;2023-12-22T06:04:31;6.00;99.90
11744;DHT22;5929;51.906;7.674;2023-12-22T06:06:59;6.00;99.90
11744;DHT22;5929;51.906;7.674;2023-12-22T06:09:26;6.00;99.90
11744;DHT22;5929;51.906;7.674;2023-12-22T06:11:53;6.10;99.90
11744;DHT22;5929;51.906;7.674;2023-12-22T06:14:19;6.00;99.90
11744;DHT22;5929;51.906;7.674;2023-12-22T06:16:46;6.00;99.90
11744;DHT22;5929;51.906;7.674;2023-12-22T06:19:13;6.10;99.90
11744;DHT22;5929;51.906;7.674;2023-12-22T06:21:41;6.10;99.90
11744;DHT22;5929;51.906;7.674;2023-12-22T06:24:08;6.10;99.90
11744;DHT22;5929;51.906;7.674;2023-12-22T06:26:35;6.00;99.90
11744;DHT22;5929;51.906;7.674;2023-12-22T06:29:02;6.10;99.90
11744;DHT22;5929;51.906;7.674;2023-12-22T06:31:29;6.10;99.90
11744;DHT22;5929;51.906;7.674;2023-12-22T06:33:56;6.20;99.90
11744;DHT22;5929;51.906;7.674;2023-12-22T06:36:26;6.20;99.90
11744;DHT22;5929;51.906;7.674;2023-12-22T06:38:54;6.30;99.90
11744;DHT22;5929;51.906;7.674;2023-12-22T06:41:21;6.30;99.90
11744;DHT22;5929;51.906;7.674;2023-12-22T06:43:49;6.20;99.90
11744;DHT22;5929;51.906;7.674;2023-12-22T06:46:16;6.20;99.90
11744;DHT22;5929;51.906;7.674;2023-12-22T06:48:44;6.20;99.90
11744;DHT22;5929;51.906;7.674;2023-12-22T06:51:17;6.20;99.90
11744;DHT22;5929;51.906;7.674;2023-12-22T06:53:47;6.20;99.90
11744;DHT22;5929;51.906;7.674;2023-12-22T06:56:19;6.30;99.90
11744;DHT22;5929;51.906;7.674;2023-12-22T06:58:56;6.30;99.90
11744;DHT22;5929;51.906;7.674;2023-12-22T07:01:25;6.30;99.90
11744;DHT22;5929;51.906;7.674;2023-12-22T07:03:54;6.40;99.90
11744;DHT22;5929;51.906;7.674;2023-12-22T07:06:25;6.40;99.90
11744;DHT22;5929;51.906;7.674;2023-12-22T07:11:45;6.40;99.90
11744;DHT22;5929;51.906;7.674;2023-12-22T07:14:14;6.40;99.90
11744;DHT22;5929;51.906;7.674;2023-12-22T07:16:41;6.50;99.90
11744;DHT22;5929;51.906;7.674;2023-12-22T07:19:09;6.50;99.90
11744;DHT22;5929;51.906;7.674;2023-12-22T07:21:36;6.50;99.90
11744;DHT22;5929;51.906;7.674;2023-12-22T07:24:04;6.50;99.90
11744;DHT22;5929;51.906;7.674;2023-12-22T07:26:30;6.50;99.90
11744;DHT22;5929;51.906;7.674;2023-12-22T07:29:01;6.50;99.90
11744;DHT22;5929;51.906;7.674;2023-12-22T07:31:30;6.50;99.90
11744;DHT22;5929;51.906;7.674;2023-12-22T07:33:57;6.50;99.90
11744;DHT22;5929;51.906;7.674;2023-12-22T07:36:24;6.50;99.90
11744;DHT22;5929;51.906;7.674;2023-12-22T07:38:51;6.40;99.90
11744;DHT22;5929;51.906;7.674;2023-12-22T07:41:20;6.20;99.90
11744;DHT22;5929;51.906;7.674;2023-12-22T07:43:51;6.10;99.90
11744;DHT22;5929;51.906;7.674;2023-12-22T07:46:20;6.00;99.90
11744;DHT22;5929;51.906;7.674;2023-12-22T07:48:47;6.00;99.90
11744;DHT22;5929;51.906;7.674;2023-12-22T07:51:14;6.00;99.90
11744;DHT22;5929;51.906;7.674;2023-12-22T07:53:41;5.80;99.90
11744;DHT22;5929;51.906;7.674;2023-12-22T07:56:08;5.60;99.90
11744;DHT22;5929;51.906;7.674;2023-12-22T07:58:36;5.50;99.90
11744;DHT22;5929;51.906;7.674;2023-12-22T08:01:06;5.40;99.90
11744;DHT22;5929;51.906;7.674;2023-12-22T08:03:34;5.30;99.90
11744;DHT22;5929;51.906;7.674;2023-12-22T08:06:01;5.30;99.90
11744;DHT22;5929;51.906;7.674;2023-12-22T08:08:29;5.20;99.90
11744;DHT22;5929;51.906;7.674;2023-12-22T08:10:58;5.20;99.90
11744;DHT22;5929;51.906;7.674;2023-12-22T08:13:25;5.10;99.90
11744;DHT22;5929;51.906;7.674;2023-12-22T08:15:53;5.10;99.90
11744;DHT22;5929;51.906;7.674;2023-12-22T08:18:19;5.10;99.90
11744;DHT22;5929;51.906;7.674;2023-12-22T08:20:48;5.00;99.90
11744;DHT22;5929;51.906;7.674;2023-12-22T08:23:15;5.00;99.90
11744;DHT22;5929;51.906;7.674;2023-12-22T08:25:41;5.00;99.90
11744;DHT22;5929;51.906;7.674;2023-12-22T08:28:08;5.00;99.90
11744;DHT22;5929;51.906;7.674;2023-12-22T08:30:35;5.00;99.90
11744;DHT22;5929;51.906;7.674;2023-12-22T08:33:03;5.00;99.90
11744;DHT22;5929;51.906;7.674;2023-12-22T08:35:29;5.00;99.90
11744;DHT22;5929;51.906;7.674;2023-12-22T08:37:58;5.00;99.90
11744;DHT22;5929;51.906;7.674;2023-12-22T08:40:28;5.00;99.90
11744;DHT22;5929;51.906;7.674;2023-12-22T08:42:55;5.00;99.90
11744;DHT22;5929;51.906;7.674;2023-12-22T08:45:25;5.00;99.90
11744;DHT22;5929;51.906;7.674;2023-12-22T08:47:54;5.00;99.90
11744;DHT22;5929;51.906;7.674;2023-12-22T08:50:21;5.00;99.90
11744;DHT22;5929;51.906;7.674;2023-12-22T08:52:48;5.00;99.90
11744;DHT22;5929;51.906;7.674;2023-12-22T08:55:16;5.10;99.90
11744;DHT22;5929;51.906;7.674;2023-12-22T08:57:43;5.10;99.90
11744;DHT22;5929;51.906;7.674;2023-12-22T09:00:10;5.10;99.90
11744;DHT22;5929;51.906;7.674;2023-12-22T09:02:38;5.10;99.90
11744;DHT22;5929;51.906;7.674;2023-12-22T09:05:05;5.20;99.90
11744;DHT22;5929;51.906;7.674;2023-12-22T09:07:32;5.20;99.90
11744;DHT22;5929;51.906;7.674;2023-12-22T09:09:59;5.30;99.90
11744;DHT22;5929;51.906;7.674;2023-12-22T09:12:27;5.30;99.90
11744;DHT22;5929;51.906;7.674;2023-12-22T09:14:54;5.30;99.90
11744;DHT22;5929;51.906;7.674;2023-12-22T09:17:23;5.30;99.90
11744;DHT22;5929;51.906;7.674;2023-12-22T09:19:52;5.40;99.90
11744;DHT22;5929;51.906;7.674;2023-12-22T09:22:19;5.40;99.90
11744;DHT22;5929;51.906;7.674;2023-12-22T09:24:47;5.40;99.90
11744;DHT22;5929;51.906;7.674;2023-12-22T09:27:14;5.40;99.90
11744;DHT22;5929;51.906;7.674;2023-12-22T09:29:42;5.40;99.90
11744;DHT22;5929;51.906;7.674;2023-12-22T09:32:09;5.50;99.90
11744;DHT22;5929;51.906;7.674;2023-12-22T09:34:36;5.50;99.90
11744;DHT22;5929;51.906;7.674;2023-12-22T09:37:04;5.50;99.90
11744;DHT22;5929;51.906;7.674;2023-12-22T09:39:31;5.50;99.90
11744;DHT22;5929;51.906;7.674;2023-12-22T09:41:58;5.50;99.90
11744;DHT22;5929;51.906;7.674;2023-12-22T09:44:24;5.60;99.90
11744;DHT22;5929;51.906;7.674;2023-12-22T09:46:57;5.60;99.90
11744;DHT22;5929;51.906;7.674;2023-12-22T09:49:25;5.70;99.90
11744;DHT22;5929;51.906;7.674;2023-12-22T09:51:53;5.70;99.90
11744;DHT22;5929;51.906;7.674;2023-12-22T09:54:21;5.70;99.90
11744;DHT22;5929;51.906;7.674;2023-12-22T09:56:48;5.80;99.90
11744;DHT22;5929;51.906;7.674;2023-12-22T09:59:17;5.80;99.90
11744;DHT22;5929;51.906;7.674;2023-12-22T10:01:45;5.90;99.90
11744;DHT22;5929;51.906;7.674;2023-12-22T10:04:15;5.90;99.90
11744;DHT22;5929;51.906;7.674;2023-12-22T10:06:44;6.00;99.90
11744;DHT22;5929;51.906;7.674;2023-12-22T10:09:11;6.00;99.90
11744;DHT22;5929;51.906;7.674;2023-12-22T10:11:41;6.00;99.90
11744;DHT22;5929;51.906;7.674;2023-12-22T10:14:10;6.00;99.90
11744;DHT22;5929;51.906;7.674;2023-12-22T10:16:37;6.00;99.90
11744;DHT22;5929;51.906;7.674;2023-12-22T10:19:07;6.00;99.90
11744;DHT22;5929;51.906;7.674;2023-12-22T10:21:36;5.90;99.90
11744;DHT22;5929;51.906;7.674;2023-12-22T10:24:03;5.90;99.90
11744;DHT22;5929;51.906;7.674;2023-12-22T10:26:30;5.90;99.90
11744;DHT22;5929;51.906;7.674;2023-12-22T10:28:56;5.80;99.90
11744;DHT22;5929;51.906;7.674;2023-12-22T10:31:23;5.80;99.90
11744;DHT22;5929;51.906;7.674;2023-12-22T10:33:51;5.80;99.90
11744;DHT22;5929;51.906;7.674;2023-12-22T10:36:18;5.80;99.90
11744;DHT22;5929;51.906;7.674;2023-12-22T10:38:46;5.80;99.90
11744;DHT22;5929;51.906;7.674;2023-12-22T10:41:13;5.80;99.90
11744;DHT22;5929;51.906;7.674;2023-12-22T10:43:40;5.80;99.90
11744;DHT22;5929;51.906;7.674;2023-12-22T10:46:07;5.80;99.90
11744;DHT22;5929;51.906;7.674;2023-12-22T10:48:36;5.80;99.90
11744;DHT22;5929;51.906;7.674;2023-12-22T10:51:04;5.80;99.90
11744;DHT22;5929;51.906;7.674;2023-12-22T10:53:35;5.90;99.90
11744;DHT22;5929;51.906;7.674;2023-12-22T10:56:04;5.90;99.90
11744;DHT22;5929;51.906;7.674;2023-12-22T10:58:33;5.90;99.90
11744;DHT22;5929;51.906;7.674;2023-12-22T11:01:01;5.90;99.90
11744;DHT22;5929;51.906;7.674;2023-12-22T11:03:34;5.90;99.90
11744;DHT22;5929;51.906;7.674;2023-12-22T11:06:06;5.90;99.90
11744;DHT22;5929;51.906;7.674;2023-12-22T11:08:37;5.90;99.90
11744;DHT22;5929;51.906;7.674;2023-12-22T11:11:13;5.90;99.90
11744;DHT22;5929;51.906;7.674;2023-12-22T11:13:43;5.90;99.90
11744;DHT22;5929;51.906;7.674;2023-12-22T11:16:10;5.90;99.90
11744;DHT22;5929;51.906;7.674;2023-12-22T11:18:37;5.90;99.90
11744;DHT22;5929;51.906;7.674;2023-12-22T11:21:06;5.80;99.90
11744;DHT22;5929;51.906;7.674;2023-12-22T11:23:33;5.90;99.90
11744;DHT22;5929;51.906;7.674;2023-12-22T11:26:03;5.90;99.90
11744;DHT22;5929;51.906;7.674;2023-12-22T11:28:34;5.90;99.90
11744;DHT22;5929;51.906;7.674;2023-12-22T11:31:01;5.90;99.90
11744;DHT22;5929;51.906;7.674;2023-12-22T11:33:29;5.90;99.90
11744;DHT22;5929;51.906;7.674;2023-12-22T11:35:56;5.90;99.90
11744;DHT22;5929;51.906;7.674;2023-12-22T11:38:24;5.90;99.90
11744;DHT22;5929;51.906;7.674;2023-12-22T11:40:52;5.90;99.90
11744;DHT22;5929;51.906;7.674;2023-12-22T11:43:19;5.90;99.90
11744;DHT22;5929;51.906;7.674;2023-12-22T11:45:50;5.90;99.90
11744;DHT22;5929;51.906;7.674;2023-12-22T11:48:17;5.90;99.90
11744;DHT22;5929;51.906;7.674;2023-12-22T11:50:43;5.90;99.90
11744;DHT22;5929;51.906;7.674;2023-12-22T11:53:21;5.90;99.90
11744;DHT22;5929;51.906;7.674;2023-12-22T11:55:58;5.90;99.90
11744;DHT22;5929;51.906;7.674;2023-12-22T11:58:36;5.90;99.90
11744;DHT22;5929;51.906;7.674;2023-12-22T12:01:07;5.90;99.90
11744;DHT22;5929;51.906;7.674;2023-12-22T12:03:38;5.90;99.90
11744;DHT22;5929;51.906;7.674;2023-12-22T12:06:11;5.90;99.90
11744;DHT22;5929;51.906;7.674;2023-12-22T12:08:37;5.90;99.90
11744;DHT22;5929;51.906;7.674;2023-12-22T12:11:03;5.90;99.90
11744;DHT22;5929;51.906;7.674;2023-12-22T12:13:33;5.90;99.90
11744;DHT22;5929;51.906;7.674;2023-12-22T12:16:00;6.00;99.90
11744;DHT22;5929;51.906;7.674;2023-12-22T12:18:30;5.90;99.90
11744;DHT22;5929;51.906;7.674;2023-12-22T12:20:58;6.00;99.90
11744;DHT22;5929;51.906;7.674;2023-12-22T12:23:25;6.00;99.90
11744;DHT22;5929;51.906;7.674;2023-12-22T12:25:53;6.00;99.90
11744;DHT22;5929;51.906;7.674;2023-12-22T12:28:25;6.00;99.90
11744;DHT22;5929;51.906;7.674;2023-12-22T12:30:58;6.00;99.90
11744;DHT22;5929;51.906;7.674;2023-12-22T12:33:26;6.00;99.90
11744;DHT22;5929;51.906;7.674;2023-12-22T12:35:55;5.90;99.90
11744;DHT22;5929;51.906;7.674;2023-12-22T12:38:28;5.90;99.90
11744;DHT22;5929;51.906;7.674;2023-12-22T12:41:04;5.90;99.90
11744;DHT22;5929;51.906;7.674;2023-12-22T12:43:31;5.90;99.90
11744;DHT22;5929;51.906;7.674;2023-12-22T12:46:03;6.00;99.90
11744;DHT22;5929;51.906;7.674;2023-12-22T12:48:30;6.00;99.90
11744;DHT22;5929;51.906;7.674;2023-12-22T12:51:03;6.00;99.90
11744;DHT22;5929;51.906;7.674;2023-12-22T12:53:31;6.00;99.90
11744;DHT22;5929;51.906;7.674;2023-12-22T12:55:58;6.00;99.90
11744;DHT22;5929;51.906;7.674;2023-12-22T12:58:27;6.00;99.90
11744;DHT22;5929;51.906;7.674;2023-12-22T13:01:04;6.00;99.90
11744;DHT22;5929;51.906;7.674;2023-12-22T13:03:31;6.00;99.90
11744;DHT22;5929;51.906;7.674;2023-12-22T13:06:07;6.00;99.90
11744;DHT22;5929;51.906;7.674;2023-12-22T13:08:36;6.00;99.90
11744;DHT22;5929;51.906;7.674;2023-12-22T13:11:06;6.00;99.90
11744;DHT22;5929;51.906;7.674;2023-12-22T13:13:41;6.00;99.90
11744;DHT22;5929;51.906;7.674;2023-12-22T13:16:08;6.00;99.90
11744;DHT22;5929;51.906;7.674;2023-12-22T13:18:36;6.00;99.90
11744;DHT22;5929;51.906;7.674;2023-12-22T13:21:02;6.00;99.90
11744;DHT22;5929;51.906;7.674;2023-12-22T13:23:31;6.00;99.90
11744;DHT22;5929;51.906;7.674;2023-12-22T13:26:00;6.00;99.90
11744;DHT22;5929;51.906;7.674;2023-12-22T13:28:27;6.00;99.90
11744;DHT22;5929;51.906;7.674;2023-12-22T13:30:54;6.00;99.90
11744;DHT22;5929;51.906;7.674;2023-12-22T13:33:21;6.00;99.90
11744;DHT22;5929;51.906;7.674;2023-12-22T13:35:50;6.00;99.90
11744;DHT22;5929;51.906;7.674;2023-12-22T13:38:18;6.00;99.90
11744;DHT22;5929;51.906;7.674;2023-12-22T13:40:47;6.00;99.90
11744;DHT22;5929;51.906;7.674;2023-12-22T13:43:14;6.00;99.90
11744;DHT22;5929;51.906;7.674;2023-12-22T13:45:41;6.00;99.90
11744;DHT22;5929;51.906;7.674;2023-12-22T13:48:08;6.10;99.90
11744;DHT22;5929;51.906;7.674;2023-12-22T13:50:35;6.00;99.90
11744;DHT22;5929;51.906;7.674;2023-12-22T13:53:08;6.10;99.90
11744;DHT22;5929;51.906;7.674;2023-12-22T13:55:35;6.10;99.90
11744;DHT22;5929;51.906;7.674;2023-12-22T13:58:05;6.10;99.90
11744;DHT22;5929;51.906;7.674;2023-12-22T14:00:33;6.10;99.90
11744;DHT22;5929;51.906;7.674;2023-12-22T14:03:01;6.10;99.90
11744;DHT22;5929;51.906;7.674;2023-12-22T14:05:28;6.10;99.90
11744;DHT22;5929;51.906;7.674;2023-12-22T14:07:55;6.10;99.90
11744;DHT22;5929;51.906;7.674;2023-12-22T14:10:22;6.10;99.90
11744;DHT22;5929;51.906;7.674;2023-12-22T14:12:48;6.10;99.90
11744;DHT22;5929;51.906;7.674;2023-12-22T14:15:18;6.10;99.90
11744;DHT22;5929;51.906;7.674;2023-12-22T14:17:44;6.10;99.90
11744;DHT22;5929;51.906;7.674;2023-12-22T14:20:12;6.10;99.90
11744;DHT22;5929;51.906;7.674;2023-12-22T14:22:40;6.10;99.90
11744;DHT22;5929;51.906;7.674;2023-12-22T14:25:07;6.10;99.90
11744;DHT22;5929;51.906;7.674;2023-12-22T14:27:34;6.00;99.90
11744;DHT22;5929;51.906;7.674;2023-12-22T14:30:01;6.10;99.90
11744;DHT22;5929;51.906;7.674;2023-12-22T14:32:30;6.10;99.90
11744;DHT22;5929;51.906;7.674;2023-12-22T14:34:56;6.10;99.90
11744;DHT22;5929;51.906;7.674;2023-12-22T14:37:23;6.10;99.90
11744;DHT22;5929;51.906;7.674;2023-12-22T14:39:50;6.10;99.90
11744;DHT22;5929;51.906;7.674;2023-12-22T14:42:17;6.10;99.90
11744;DHT22;5929;51.906;7.674;2023-12-22T14:44:44;6.10;99.90
11744;DHT22;5929;51.906;7.674;2023-12-22T14:47:11;6.10;99.90
11744;DHT22;5929;51.906;7.674;2023-12-22T14:49:39;6.10;99.90
11744;DHT22;5929;51.906;7.674;2023-12-22T14:52:06;6.10;99.90
11744;DHT22;5929;51.906;7.674;2023-12-22T14:54:33;6.20;99.90
11744;DHT22;5929;51.906;7.674;2023-12-22T14:57:00;6.20;99.90
11744;DHT22;5929;51.906;7.674;2023-12-22T14:59:27;6.20;99.90
11744;DHT22;5929;51.906;7.674;2023-12-22T15:01:54;6.20;99.90
11744;DHT22;5929;51.906;7.674;2023-12-22T15:04:20;6.20;99.90
11744;DHT22;5929;51.906;7.674;2023-12-22T15:06:49;6.20;99.90
11744;DHT22;5929;51.906;7.674;2023-12-22T15:09:17;6.20;99.90
11744;DHT22;5929;51.906;7.674;2023-12-22T15:11:46;6.20;99.90
11744;DHT22;5929;51.906;7.674;2023-12-22T15:14:13;6.20;99.90
11744;DHT22;5929;51.906;7.674;2023-12-22T15:16:41;6.30;99.90
11744;DHT22;5929;51.906;7.674;2023-12-22T15:19:10;6.20;99.90
11744;DHT22;5929;51.906;7.674;2023-12-22T15:21:37;6.30;99.90
11744;DHT22;5929;51.906;7.674;2023-12-22T15:24:06;6.30;99.90
11744;DHT22;5929;51.906;7.674;2023-12-22T15:26:34;6.20;99.90
11744;DHT22;5929;51.906;7.674;2023-12-22T15:29:01;6.20;99.90
11744;DHT22;5929;51.906;7.674;2023-12-22T15:31:28;6.20;99.90
11744;DHT22;5929;51.906;7.674;2023-12-22T15:33:55;6.20;99.90
11744;DHT22;5929;51.906;7.674;2023-12-22T15:36:23;6.30;99.90
11744;DHT22;5929;51.906;7.674;2023-12-22T15:38:52;6.30;99.90
11744;DHT22;5929;51.906;7.674;2023-12-22T15:41:21;6.30;99.90
11744;DHT22;5929;51.906;7.674;2023-12-22T15:43:48;6.30;99.90
11744;DHT22;5929;51.906;7.674;2023-12-22T15:46:15;6.30;99.90
11744;DHT22;5929;51.906;7.674;2023-12-22T15:48:42;6.30;99.90
11744;DHT22;5929;51.906;7.674;2023-12-22T15:51:10;6.30;99.90
11744;DHT22;5929;51.906;7.674;2023-12-22T15:53:37;6.40;99.90
11744;DHT22;5929;51.906;7.674;2023-12-22T15:56:04;6.40;99.90
11744;DHT22;5929;51.906;7.674;2023-12-22T15:58:35;6.40;99.90
11744;DHT22;5929;51.906;7.674;2023-12-22T16:01:03;6.40;99.90
11744;DHT22;5929;51.906;7.674;2023-12-22T16:03:30;6.50;99.90
11744;DHT22;5929;51.906;7.674;2023-12-22T16:05:57;6.50;99.90
11744;DHT22;5929;51.906;7.674;2023-12-22T16:08:23;6.50;99.90